Hakuhomaru — JJ4011 — position and weather

sailwx.info

Track history (hours):
 
Tides and Currents Weather Stations Pressure Air Temp Water Temp Dewpoint Dewpoint Depression Visibility Wind Speed Wind Dir Waves Ship Positions

Hakuhomaru

Last reported at 2017-Apr-27 06:04 UTC. Time now 2017-Apr-27 09:15 UTC.
Position N 34°41' E 135°12'.

Length 38 m; draft 3.3 m.

Type: Tug. MMSI: 431401584.

Date/timePositionNaut miles runAvg speedWind from/ knotsBaromVisibWave heightAir tempDewpointWater temp
2017-Apr-27 06:04N 34°41' E 135°12'0 0.0
2017-Apr-27 06:00N 34°41' E 135°12'2 3.6
2017-Apr-27 05:29N 34°40' E 135°14'0 0.1
2017-Apr-27 05:00N 34°40' E 135°14'2 3.7
2017-Apr-27 04:30N 34°41' E 135°12'0 0.2
2017-Apr-27 04:00N 34°41' E 135°12'0 0.0
2017-Apr-27 03:30N 34°41' E 135°12'0 0.0
2017-Apr-27 03:00N 34°41' E 135°12'0 0.0
2017-Apr-27 02:30N 34°41' E 135°12'0 0.0
2017-Apr-27 02:00N 34°41' E 135°12'0 0.0
2017-Apr-27 01:30N 34°41' E 135°12'0 0.0
2017-Apr-27 01:00N 34°41' E 135°12'0 0.0
2017-Apr-27 00:30N 34°41' E 135°12'0 0.0
2017-Apr-27 00:00N 34°41' E 135°12'0 0.0
2017-Apr-26 23:30N 34°41' E 135°12'0 0.0
2017-Apr-26 23:00N 34°41' E 135°12'0 0.0
2017-Apr-26 07:34N 34°41' E 135°12'0 0.0
2017-Apr-26 07:30N 34°41' E 135°12'1 2.4
2017-Apr-26 07:00N 34°40' E 135°14'0 0.1
2017-Apr-26 06:30N 34°40' E 135°13'1 2.4
2017-Apr-26 06:00N 34°41' E 135°12'0 0.0
2017-Apr-26 05:30N 34°41' E 135°12'0 0.0
2017-Apr-26 05:00N 34°41' E 135°12'0 0.0
2017-Apr-26 04:30N 34°41' E 135°12'0 0.0
2017-Apr-26 04:00N 34°41' E 135°12'0 0.0
2017-Apr-26 03:31N 34°41' E 135°12'0 0.0
2017-Apr-26 03:00N 34°41' E 135°12'0 0.0
2017-Apr-26 02:31N 34°41' E 135°12'0 0.0
2017-Apr-26 02:00N 34°41' E 135°12'0 0.0
2017-Apr-26 01:30N 34°41' E 135°12'0 0.0
2017-Apr-26 01:00N 34°41' E 135°12'0 0.0
2017-Apr-26 00:30N 34°41' E 135°12'0 0.0
2017-Apr-26 00:00N 34°41' E 135°12'0 0.0
2017-Apr-25 23:30N 34°41' E 135°12'0 0.0
2017-Apr-25 23:00N 34°41' E 135°12'4 7.8
2017-Apr-25 22:30N 34°42' E 135°16'1 1.7
2017-Apr-25 22:00N 34°41' E 135°17'1 2.8
2017-Apr-25 21:30N 34°40' E 135°18'5 9.3
2017-Apr-25 21:00N 34°41' E 135°13'1 1.3
2017-Apr-25 20:30N 34°41' E 135°12'0 0.0
2017-Apr-25 08:58N 34°41' E 135°12'4 8.4
2017-Apr-25 08:30N 34°41' E 135°17'1 1.7
2017-Apr-25 08:00N 34°41' E 135°17'0 0.3
2017-Apr-25 07:30N 34°41' E 135°17'0 0.0
2017-Apr-25 07:00N 34°41' E 135°17'0 0.2
2017-Apr-25 06:30N 34°41' E 135°17'0 0.0
2017-Apr-25 06:00N 34°41' E 135°17'0 0.0
2017-Apr-25 05:30N 34°41' E 135°17'3 5.6
2017-Apr-25 05:00N 34°39' E 135°15'0 0.8
2017-Apr-25 04:30N 34°39' E 135°15'1 2.6
2017-Apr-25 04:00N 34°39' E 135°14'2 4.2
2017-Apr-25 03:30N 34°41' E 135°12'0 0.0
2017-Apr-25 03:00N 34°41' E 135°12'0 0.0
2017-Apr-25 02:30N 34°41' E 135°12'0 0.0
2017-Apr-25 02:00N 34°41' E 135°12'0 0.0
2017-Apr-25 01:30N 34°41' E 135°12'0 0.0
2017-Apr-25 01:00N 34°41' E 135°12'0 0.0
2017-Apr-25 00:30N 34°41' E 135°12'0 0.0
2017-Apr-25 00:00N 34°41' E 135°12'0 0.0
2017-Apr-24 17:46N 34°41' E 135°12'1 5.0
2017-Apr-24 17:30N 34°41' E 135°14'1 2.6
2017-Apr-24 17:00N 34°40' E 135°14'0 0.1
2017-Apr-24 16:30N 34°40' E 135°14'1 1.3
2017-Apr-24 16:00N 34°40' E 135°14'0 0.0
2017-Apr-24 15:30N 34°40' E 135°14'0 0.0
2017-Apr-24 15:00N 34°40' E 135°14'0 0.0
2017-Apr-24 14:30N 34°40' E 135°14'0 0.0
2017-Apr-24 13:30N 34°40' E 135°14'0 0.0
2017-Apr-24 13:00N 34°40' E 135°14'0 0.0
2017-Apr-24 12:30N 34°40' E 135°14'0 0.0
2017-Apr-24 12:00N 34°40' E 135°14'2 4.1
2017-Apr-24 11:30N 34°42' E 135°15'0 1.0
2017-Apr-24 11:00N 34°42' E 135°15'2 3.9
2017-Apr-24 10:30N 34°41' E 135°13'0 0.0
2017-Apr-24 10:00N 34°41' E 135°13'0 0.0
2017-Apr-24 09:30N 34°41' E 135°13'0 0.0
2017-Apr-24 09:00N 34°41' E 135°13'0 0.4
2017-Apr-24 08:30N 34°41' E 135°12'1 1.1
2017-Apr-24 08:00N 34°41' E 135°12'0 0.0
2017-Apr-24 07:30N 34°41' E 135°12'0 0.0
2017-Apr-24 07:00N 34°41' E 135°12'0 0.0
2017-Apr-24 06:30N 34°41' E 135°12'0 0.0
2017-Apr-24 06:00N 34°41' E 135°12'0 0.0
2017-Apr-24 05:30N 34°41' E 135°12'0 0.0
2017-Apr-24 05:00N 34°41' E 135°12'1 2.3
2017-Apr-24 04:30N 34°40' E 135°13'1 2.0
2017-Apr-24 04:00N 34°40' E 135°15'0 0.1
2017-Apr-24 03:30N 34°40' E 135°15'2 4.4
2017-Apr-24 03:00N 34°41' E 135°12'0 0.2
2017-Apr-24 02:30N 34°41' E 135°12'0 0.0
2017-Apr-24 02:00N 34°41' E 135°12'0 0.0
2017-Apr-24 01:30N 34°41' E 135°12'0 0.0
2017-Apr-24 01:00N 34°41' E 135°12'3 5.7
2017-Apr-24 00:30N 34°41' E 135°16'1 2.6
2017-Apr-24 00:00N 34°41' E 135°17'0 0.5
2017-Apr-23 23:30N 34°41' E 135°17'1 1.1
2017-Apr-23 23:00N 34°41' E 135°18'1 2.2
2017-Apr-23 22:30N 34°40' E 135°18'1 1.5
2017-Apr-23 22:00N 34°41' E 135°17'4 7.4
2017-Apr-23 21:30N 34°41' E 135°13'1 1.7
2017-Apr-23 21:00N 34°41' E 135°12'0 0.0
2017-Apr-23 20:30N 34°41' E 135°12'0 0.0
2017-Apr-23 05:57N 34°41' E 135°12'0 0.0
2017-Apr-23 05:30N 34°41' E 135°12'0 0.0
2017-Apr-23 05:01N 34°41' E 135°12'0 0.0
2017-Apr-23 04:30N 34°41' E 135°12'0 0.0
2017-Apr-23 04:00N 34°41' E 135°12'0 0.0
2017-Apr-23 03:29N 34°41' E 135°12'0 0.0
2017-Apr-23 03:00N 34°41' E 135°12'0 0.0
2017-Apr-23 02:30N 34°41' E 135°12'0 0.0
2017-Apr-23 02:00N 34°41' E 135°12'0 0.0
2017-Apr-23 01:30N 34°41' E 135°12'0 0.0
2017-Apr-23 01:00N 34°41' E 135°12'0 0.0
2017-Apr-23 00:30N 34°41' E 135°12'0 0.0
2017-Apr-23 00:00N 34°41' E 135°12'0 0.9
2017-Apr-22 23:30N 34°41' E 135°12'2 4.5
2017-Apr-22 23:00N 34°41' E 135°15'1 2.4
2017-Apr-22 22:30N 34°40' E 135°15'0 0.8
2017-Apr-22 22:00N 34°40' E 135°15'2 4.9
2017-Apr-22 21:30N 34°41' E 135°12'0 0.0
2017-Apr-22 21:01N 34°41' E 135°12'0 0.0
2017-Apr-22 08:35N 34°41' E 135°12'0 0.0
2017-Apr-22 08:30N 34°41' E 135°12'2 3.4
2017-Apr-22 08:00N 34°40' E 135°14'1 2.7
2017-Apr-22 07:30N 34°39' E 135°15'1 1.9
2017-Apr-22 07:01N 34°39' E 135°14'3 5.0
2017-Apr-22 06:30N 34°41' E 135°12'0 0.0
2017-Apr-22 06:01N 34°41' E 135°12'0 0.0
2017-Apr-22 05:31N 34°41' E 135°12'0 0.0
2017-Apr-22 05:01N 34°41' E 135°12'0 0.0
2017-Apr-22 04:31N 34°41' E 135°12'0 0.0
2017-Apr-22 04:00N 34°41' E 135°12'0 0.0
2017-Apr-22 03:30N 34°41' E 135°12'0 0.0
2017-Apr-22 03:00N 34°41' E 135°12'0 0.0
2017-Apr-22 02:30N 34°41' E 135°12'0 0.0
2017-Apr-22 02:00N 34°41' E 135°12'0 0.0
2017-Apr-22 01:30N 34°41' E 135°12'2 4.0
2017-Apr-22 01:00N 34°42' E 135°14'1 1.1
2017-Apr-22 00:31N 34°42' E 135°15'2 3.5
2017-Apr-22 00:00N 34°41' E 135°13'0 0.0
2017-Apr-21 23:31N 34°41' E 135°13'0 0.3
2017-Apr-21 23:00N 34°41' E 135°13'3 5.4
2017-Apr-21 22:31N 34°41' E 135°16'2 3.3
2017-Apr-21 22:01N 34°41' E 135°18'4 7.9
2017-Apr-21 21:30N 34°41' E 135°13'1 1.5
2017-Apr-21 21:00N 34°41' E 135°12'0 0.0
2017-Apr-20 04:33N 34°41' E 135°12'0 0.0
2017-Apr-20 04:30N 34°41' E 135°12'0 0.0
2017-Apr-19 23:33N 34°41' E 135°12'0 0.0
2017-Apr-19 23:30N 34°41' E 135°12'2 4.4
2017-Apr-19 23:00N 34°40' E 135°14'1 2.4
2017-Apr-19 22:30N 34°39' E 135°16'0 0.8
2017-Apr-19 22:00N 34°39' E 135°16'2 4.4
2017-Apr-19 21:30N 34°40' E 135°14'0 0.0
2017-Apr-19 21:00N 34°40' E 135°14'0 0.0
2017-Apr-19 20:30N 34°40' E 135°14'0 0.0
2017-Apr-19 20:00N 34°40' E 135°14'0 0.0
2017-Apr-19 19:30N 34°40' E 135°14'0 0.0
2017-Apr-19 19:00N 34°40' E 135°14'0 0.0
2017-Apr-19 18:30N 34°40' E 135°14'1 1.3
2017-Apr-19 18:00N 34°40' E 135°14'1 1.3
2017-Apr-19 17:30N 34°40' E 135°14'0 0.0
2017-Apr-19 17:00N 34°40' E 135°14'0 0.0
2017-Apr-19 16:30N 34°40' E 135°14'0 0.0
2017-Apr-19 16:00N 34°40' E 135°14'0 0.0
2017-Apr-19 15:30N 34°40' E 135°14'0 0.0
2017-Apr-19 15:00N 34°40' E 135°14'0 0.8
2017-Apr-19 14:30N 34°40' E 135°14'0 0.4
2017-Apr-19 13:30N 34°40' E 135°14'0 0.0
2017-Apr-19 13:00N 34°40' E 135°14'0 0.0
2017-Apr-19 12:30N 34°40' E 135°14'4 6.9
2017-Apr-19 11:59N 34°41' E 135°17'0 0.1
2017-Apr-19 11:30N 34°41' E 135°17'1 1.8
2017-Apr-19 11:00N 34°41' E 135°17'0 0.0
2017-Apr-19 10:30N 34°41' E 135°17'0 0.0
2017-Apr-19 10:00N 34°41' E 135°17'0 0.0
2017-Apr-19 09:30N 34°41' E 135°17'0 0.0
2017-Apr-19 09:00N 34°41' E 135°17'0 0.0
2017-Apr-19 08:30N 34°41' E 135°17'1 1.7
2017-Apr-19 08:00N 34°41' E 135°17'0 0.1
2017-Apr-19 07:30N 34°41' E 135°17'4 8.1
2017-Apr-19 07:00N 34°41' E 135°13'1 1.5
2017-Apr-19 06:30N 34°41' E 135°12'0 0.0
2017-Apr-19 06:00N 34°41' E 135°12'0 0.0
2017-Apr-19 05:30N 34°41' E 135°12'0 0.0
2017-Apr-19 05:00N 34°41' E 135°12'0 0.0
2017-Apr-19 04:30N 34°41' E 135°12'0 0.0
2017-Apr-19 04:00N 34°41' E 135°12'0 0.0
2017-Apr-19 03:30N 34°41' E 135°12'0 0.0
2017-Apr-19 03:00N 34°41' E 135°12'0 0.0
2017-Apr-19 02:30N 34°41' E 135°12'3 5.0
2017-Apr-19 02:00N 34°42' E 135°15'0 0.2
2017-Apr-19 01:30N 34°42' E 135°15'1 2.9
2017-Apr-19 01:00N 34°40' E 135°15'1 1.3
2017-Apr-19 00:30N 34°40' E 135°14'0 0.0
2017-Apr-19 00:00N 34°40' E 135°14'0 0.0
2017-Apr-18 23:30N 34°40' E 135°14'1 1.8
2017-Apr-18 23:00N 34°41' E 135°15'2 4.1
2017-Apr-18 22:30N 34°41' E 135°17'1 1.9
2017-Apr-18 21:59N 34°40' E 135°18'2 3.7
2017-Apr-18 21:30N 34°41' E 135°16'3 6.7
2017-Apr-18 21:00N 34°40' E 135°12'0 0.0
2017-Apr-18 07:17N 34°41' E 135°12'2 6.9
2017-Apr-18 07:00N 34°39' E 135°13'1 2.5
2017-Apr-18 06:30N 34°39' E 135°15'1 2.1
2017-Apr-18 05:59N 34°39' E 135°16'1 2.9
2017-Apr-18 05:31N 34°40' E 135°15'2 4.9
2017-Apr-18 05:01N 34°41' E 135°12'0 0.0
2017-Apr-18 04:31N 34°41' E 135°12'0 0.0
2017-Apr-18 04:01N 34°41' E 135°12'0 0.0
2017-Apr-18 03:30N 34°41' E 135°12'0 0.0
2017-Apr-18 03:00N 34°41' E 135°12'0 0.0
2017-Apr-18 02:30N 34°41' E 135°12'0 0.0
2017-Apr-18 02:00N 34°41' E 135°12'0 0.0
2017-Apr-18 01:31N 34°41' E 135°12'0 0.0
2017-Apr-18 01:01N 34°41' E 135°12'3 6.8
2017-Apr-18 00:30N 34°41' E 135°16'1 1.6
2017-Apr-17 23:59N 34°41' E 135°17'0 0.7
2017-Apr-17 23:30N 34°41' E 135°17'1 2.6
2017-Apr-17 23:00N 34°40' E 135°18'1 1.4
2017-Apr-17 22:30N 34°40' E 135°17'0 0.1
2017-Apr-17 22:00N 34°40' E 135°18'3 5.9
2017-Apr-17 21:31N 34°41' E 135°14'2 3.1
2017-Apr-17 21:01N 34°41' E 135°12'  
Track history (hours):
 
Tides and Currents Weather Stations Pressure Air Temp Water Temp Dewpoint Dewpoint Depression Visibility Wind Speed Wind Dir Waves Ship Positions

Hakuhomaru

Last reported at 2017-Apr-27 06:04 UTC. Time now 2017-Apr-27 09:15 UTC.
Position N 34°41' E 135°12'.

Length 38 m; draft 3.3 m.

Type: Tug. MMSI: 431401584.

Date/timePositionNaut miles runAvg speedWind from/ knotsBaromVisibWave heightAir tempDewpointWater temp
2017-Apr-27 06:04N 34°41' E 135°12'0 0.0
2017-Apr-27 06:00N 34°41' E 135°12'2 3.6
2017-Apr-27 05:29N 34°40' E 135°14'0 0.1
2017-Apr-27 05:00N 34°40' E 135°14'2 3.7
2017-Apr-27 04:30N 34°41' E 135°12'0 0.2
2017-Apr-27 04:00N 34°41' E 135°12'0 0.0
2017-Apr-27 03:30N 34°41' E 135°12'0 0.0
2017-Apr-27 03:00N 34°41' E 135°12'0 0.0
2017-Apr-27 02:30N 34°41' E 135°12'0 0.0
2017-Apr-27 02:00N 34°41' E 135°12'0 0.0
2017-Apr-27 01:30N 34°41' E 135°12'0 0.0
2017-Apr-27 01:00N 34°41' E 135°12'0 0.0
2017-Apr-27 00:30N 34°41' E 135°12'0 0.0
2017-Apr-27 00:00N 34°41' E 135°12'0 0.0
2017-Apr-26 23:30N 34°41' E 135°12'0 0.0
2017-Apr-26 23:00N 34°41' E 135°12'0 0.0
2017-Apr-26 07:34N 34°41' E 135°12'0 0.0
2017-Apr-26 07:30N 34°41' E 135°12'1 2.4
2017-Apr-26 07:00N 34°40' E 135°14'0 0.1
2017-Apr-26 06:30N 34°40' E 135°13'1 2.4
2017-Apr-26 06:00N 34°41' E 135°12'0 0.0
2017-Apr-26 05:30N 34°41' E 135°12'0 0.0
2017-Apr-26 05:00N 34°41' E 135°12'0 0.0
2017-Apr-26 04:30N 34°41' E 135°12'0 0.0
2017-Apr-26 04:00N 34°41' E 135°12'0 0.0
2017-Apr-26 03:31N 34°41' E 135°12'0 0.0
2017-Apr-26 03:00N 34°41' E 135°12'0 0.0
2017-Apr-26 02:31N 34°41' E 135°12'0 0.0
2017-Apr-26 02:00N 34°41' E 135°12'0 0.0
2017-Apr-26 01:30N 34°41' E 135°12'0 0.0
2017-Apr-26 01:00N 34°41' E 135°12'0 0.0
2017-Apr-26 00:30N 34°41' E 135°12'0 0.0
2017-Apr-26 00:00N 34°41' E 135°12'0 0.0
2017-Apr-25 23:30N 34°41' E 135°12'0 0.0
2017-Apr-25 23:00N 34°41' E 135°12'4 7.8
2017-Apr-25 22:30N 34°42' E 135°16'1 1.7
2017-Apr-25 22:00N 34°41' E 135°17'1 2.8
2017-Apr-25 21:30N 34°40' E 135°18'5 9.3
2017-Apr-25 21:00N 34°41' E 135°13'1 1.3
2017-Apr-25 20:30N 34°41' E 135°12'0 0.0
2017-Apr-25 08:58N 34°41' E 135°12'4 8.4
2017-Apr-25 08:30N 34°41' E 135°17'1 1.7
2017-Apr-25 08:00N 34°41' E 135°17'0 0.3
2017-Apr-25 07:30N 34°41' E 135°17'0 0.0
2017-Apr-25 07:00N 34°41' E 135°17'0 0.2
2017-Apr-25 06:30N 34°41' E 135°17'0 0.0
2017-Apr-25 06:00N 34°41' E 135°17'0 0.0
2017-Apr-25 05:30N 34°41' E 135°17'3 5.6
2017-Apr-25 05:00N 34°39' E 135°15'0 0.8
2017-Apr-25 04:30N 34°39' E 135°15'1 2.6
2017-Apr-25 04:00N 34°39' E 135°14'2 4.2
2017-Apr-25 03:30N 34°41' E 135°12'0 0.0
2017-Apr-25 03:00N 34°41' E 135°12'0 0.0
2017-Apr-25 02:30N 34°41' E 135°12'0 0.0
2017-Apr-25 02:00N 34°41' E 135°12'0 0.0
2017-Apr-25 01:30N 34°41' E 135°12'0 0.0
2017-Apr-25 01:00N 34°41' E 135°12'0 0.0
2017-Apr-25 00:30N 34°41' E 135°12'0 0.0
2017-Apr-25 00:00N 34°41' E 135°12'0 0.0
2017-Apr-24 17:46N 34°41' E 135°12'1 5.0
2017-Apr-24 17:30N 34°41' E 135°14'1 2.6
2017-Apr-24 17:00N 34°40' E 135°14'0 0.1
2017-Apr-24 16:30N 34°40' E 135°14'1 1.3
2017-Apr-24 16:00N 34°40' E 135°14'0 0.0
2017-Apr-24 15:30N 34°40' E 135°14'0 0.0
2017-Apr-24 15:00N 34°40' E 135°14'0 0.0
2017-Apr-24 14:30N 34°40' E 135°14'0 0.0
2017-Apr-24 13:30N 34°40' E 135°14'0 0.0
2017-Apr-24 13:00N 34°40' E 135°14'0 0.0
2017-Apr-24 12:30N 34°40' E 135°14'0 0.0
2017-Apr-24 12:00N 34°40' E 135°14'2 4.1
2017-Apr-24 11:30N 34°42' E 135°15'0 1.0
2017-Apr-24 11:00N 34°42' E 135°15'2 3.9
2017-Apr-24 10:30N 34°41' E 135°13'0 0.0
2017-Apr-24 10:00N 34°41' E 135°13'0 0.0
2017-Apr-24 09:30N 34°41' E 135°13'0 0.0
2017-Apr-24 09:00N 34°41' E 135°13'0 0.4
2017-Apr-24 08:30N 34°41' E 135°12'1 1.1
2017-Apr-24 08:00N 34°41' E 135°12'0 0.0
2017-Apr-24 07:30N 34°41' E 135°12'0 0.0
2017-Apr-24 07:00N 34°41' E 135°12'0 0.0
2017-Apr-24 06:30N 34°41' E 135°12'0 0.0
2017-Apr-24 06:00N 34°41' E 135°12'0 0.0
2017-Apr-24 05:30N 34°41' E 135°12'0 0.0
2017-Apr-24 05:00N 34°41' E 135°12'1 2.3
2017-Apr-24 04:30N 34°40' E 135°13'1 2.0
2017-Apr-24 04:00N 34°40' E 135°15'0 0.1
2017-Apr-24 03:30N 34°40' E 135°15'2 4.4
2017-Apr-24 03:00N 34°41' E 135°12'0 0.2
2017-Apr-24 02:30N 34°41' E 135°12'0 0.0
2017-Apr-24 02:00N 34°41' E 135°12'0 0.0
2017-Apr-24 01:30N 34°41' E 135°12'0 0.0
2017-Apr-24 01:00N 34°41' E 135°12'3 5.7
2017-Apr-24 00:30N 34°41' E 135°16'1 2.6
2017-Apr-24 00:00N 34°41' E 135°17'0 0.5
2017-Apr-23 23:30N 34°41' E 135°17'1 1.1
2017-Apr-23 23:00N 34°41' E 135°18'1 2.2
2017-Apr-23 22:30N 34°40' E 135°18'1 1.5
2017-Apr-23 22:00N 34°41' E 135°17'4 7.4
2017-Apr-23 21:30N 34°41' E 135°13'1 1.7
2017-Apr-23 21:00N 34°41' E 135°12'0 0.0
2017-Apr-23 20:30N 34°41' E 135°12'0 0.0
2017-Apr-23 05:57N 34°41' E 135°12'0 0.0
2017-Apr-23 05:30N 34°41' E 135°12'0 0.0
2017-Apr-23 05:01N 34°41' E 135°12'0 0.0
2017-Apr-23 04:30N 34°41' E 135°12'0 0.0
2017-Apr-23 04:00N 34°41' E 135°12'0 0.0
2017-Apr-23 03:29N 34°41' E 135°12'0 0.0
2017-Apr-23 03:00N 34°41' E 135°12'0 0.0
2017-Apr-23 02:30N 34°41' E 135°12'0 0.0
2017-Apr-23 02:00N 34°41' E 135°12'0 0.0
2017-Apr-23 01:30N 34°41' E 135°12'0 0.0
2017-Apr-23 01:00N 34°41' E 135°12'0 0.0
2017-Apr-23 00:30N 34°41' E 135°12'0 0.0
2017-Apr-23 00:00N 34°41' E 135°12'0 0.9
2017-Apr-22 23:30N 34°41' E 135°12'2 4.5
2017-Apr-22 23:00N 34°41' E 135°15'1 2.4
2017-Apr-22 22:30N 34°40' E 135°15'0 0.8
2017-Apr-22 22:00N 34°40' E 135°15'2 4.9
2017-Apr-22 21:30N 34°41' E 135°12'0 0.0
2017-Apr-22 21:01N 34°41' E 135°12'0 0.0
2017-Apr-22 08:35N 34°41' E 135°12'0 0.0
2017-Apr-22 08:30N 34°41' E 135°12'2 3.4
2017-Apr-22 08:00N 34°40' E 135°14'1 2.7
2017-Apr-22 07:30N 34°39' E 135°15'1 1.9
2017-Apr-22 07:01N 34°39' E 135°14'3 5.0
2017-Apr-22 06:30N 34°41' E 135°12'0 0.0
2017-Apr-22 06:01N 34°41' E 135°12'0 0.0
2017-Apr-22 05:31N 34°41' E 135°12'0 0.0
2017-Apr-22 05:01N 34°41' E 135°12'0 0.0
2017-Apr-22 04:31N 34°41' E 135°12'0 0.0
2017-Apr-22 04:00N 34°41' E 135°12'0 0.0
2017-Apr-22 03:30N 34°41' E 135°12'0 0.0
2017-Apr-22 03:00N 34°41' E 135°12'0 0.0
2017-Apr-22 02:30N 34°41' E 135°12'0 0.0
2017-Apr-22 02:00N 34°41' E 135°12'0 0.0
2017-Apr-22 01:30N 34°41' E 135°12'2 4.0
2017-Apr-22 01:00N 34°42' E 135°14'1 1.1
2017-Apr-22 00:31N 34°42' E 135°15'2 3.5
2017-Apr-22 00:00N 34°41' E 135°13'0 0.0
2017-Apr-21 23:31N 34°41' E 135°13'0 0.3
2017-Apr-21 23:00N 34°41' E 135°13'3 5.4
2017-Apr-21 22:31N 34°41' E 135°16'2 3.3
2017-Apr-21 22:01N 34°41' E 135°18'4 7.9
2017-Apr-21 21:30N 34°41' E 135°13'1 1.5
2017-Apr-21 21:00N 34°41' E 135°12'0 0.0
2017-Apr-20 04:33N 34°41' E 135°12'0 0.0
2017-Apr-20 04:30N 34°41' E 135°12'0 0.0
2017-Apr-19 23:33N 34°41' E 135°12'0 0.0
2017-Apr-19 23:30N 34°41' E 135°12'2 4.4
2017-Apr-19 23:00N 34°40' E 135°14'1 2.4
2017-Apr-19 22:30N 34°39' E 135°16'0 0.8
2017-Apr-19 22:00N 34°39' E 135°16'2 4.4
2017-Apr-19 21:30N 34°40' E 135°14'0 0.0
2017-Apr-19 21:00N 34°40' E 135°14'0 0.0
2017-Apr-19 20:30N 34°40' E 135°14'0 0.0
2017-Apr-19 20:00N 34°40' E 135°14'0 0.0
2017-Apr-19 19:30N 34°40' E 135°14'0 0.0
2017-Apr-19 19:00N 34°40' E 135°14'0 0.0
2017-Apr-19 18:30N 34°40' E 135°14'1 1.3
2017-Apr-19 18:00N 34°40' E 135°14'1 1.3
2017-Apr-19 17:30N 34°40' E 135°14'0 0.0
2017-Apr-19 17:00N 34°40' E 135°14'0 0.0
2017-Apr-19 16:30N 34°40' E 135°14'0 0.0
2017-Apr-19 16:00N 34°40' E 135°14'0 0.0
2017-Apr-19 15:30N 34°40' E 135°14'0 0.0
2017-Apr-19 15:00N 34°40' E 135°14'0 0.8
2017-Apr-19 14:30N 34°40' E 135°14'0 0.4
2017-Apr-19 13:30N 34°40' E 135°14'0 0.0
2017-Apr-19 13:00N 34°40' E 135°14'0 0.0
2017-Apr-19 12:30N 34°40' E 135°14'4 6.9
2017-Apr-19 11:59N 34°41' E 135°17'0 0.1
2017-Apr-19 11:30N 34°41' E 135°17'1 1.8
2017-Apr-19 11:00N 34°41' E 135°17'0 0.0
2017-Apr-19 10:30N 34°41' E 135°17'0 0.0
2017-Apr-19 10:00N 34°41' E 135°17'0 0.0
2017-Apr-19 09:30N 34°41' E 135°17'0 0.0
2017-Apr-19 09:00N 34°41' E 135°17'0 0.0
2017-Apr-19 08:30N 34°41' E 135°17'1 1.7
2017-Apr-19 08:00N 34°41' E 135°17'0 0.1
2017-Apr-19 07:30N 34°41' E 135°17'4 8.1
2017-Apr-19 07:00N 34°41' E 135°13'1 1.5
2017-Apr-19 06:30N 34°41' E 135°12'0 0.0
2017-Apr-19 06:00N 34°41' E 135°12'0 0.0
2017-Apr-19 05:30N 34°41' E 135°12'0 0.0
2017-Apr-19 05:00N 34°41' E 135°12'0 0.0
2017-Apr-19 04:30N 34°41' E 135°12'0 0.0
2017-Apr-19 04:00N 34°41' E 135°12'0 0.0
2017-Apr-19 03:30N 34°41' E 135°12'0 0.0
2017-Apr-19 03:00N 34°41' E 135°12'0 0.0
2017-Apr-19 02:30N 34°41' E 135°12'3 5.0
2017-Apr-19 02:00N 34°42' E 135°15'0 0.2
2017-Apr-19 01:30N 34°42' E 135°15'1 2.9
2017-Apr-19 01:00N 34°40' E 135°15'1 1.3
2017-Apr-19 00:30N 34°40' E 135°14'0 0.0
2017-Apr-19 00:00N 34°40' E 135°14'0 0.0
2017-Apr-18 23:30N 34°40' E 135°14'1 1.8
2017-Apr-18 23:00N 34°41' E 135°15'2 4.1
2017-Apr-18 22:30N 34°41' E 135°17'1 1.9
2017-Apr-18 21:59N 34°40' E 135°18'2 3.7
2017-Apr-18 21:30N 34°41' E 135°16'3 6.7
2017-Apr-18 21:00N 34°40' E 135°12'0 0.0
2017-Apr-18 07:17N 34°41' E 135°12'2 6.9
2017-Apr-18 07:00N 34°39' E 135°13'1 2.5
2017-Apr-18 06:30N 34°39' E 135°15'1 2.1
2017-Apr-18 05:59N 34°39' E 135°16'1 2.9
2017-Apr-18 05:31N 34°40' E 135°15'2 4.9
2017-Apr-18 05:01N 34°41' E 135°12'0 0.0
2017-Apr-18 04:31N 34°41' E 135°12'0 0.0
2017-Apr-18 04:01N 34°41' E 135°12'0 0.0
2017-Apr-18 03:30N 34°41' E 135°12'0 0.0
2017-Apr-18 03:00N 34°41' E 135°12'0 0.0
2017-Apr-18 02:30N 34°41' E 135°12'0 0.0
2017-Apr-18 02:00N 34°41' E 135°12'0 0.0
2017-Apr-18 01:31N 34°41' E 135°12'0 0.0
2017-Apr-18 01:01N 34°41' E 135°12'3 6.8
2017-Apr-18 00:30N 34°41' E 135°16'1 1.6
2017-Apr-17 23:59N 34°41' E 135°17'0 0.7
2017-Apr-17 23:30N 34°41' E 135°17'1 2.6
2017-Apr-17 23:00N 34°40' E 135°18'1 1.4
2017-Apr-17 22:30N 34°40' E 135°17'0 0.1
2017-Apr-17 22:00N 34°40' E 135°18'3 5.9
2017-Apr-17 21:31N 34°41' E 135°14'2 3.1
2017-Apr-17 21:01N 34°41' E 135°12'  

Dump ship's entire track history